Time;durP1;ratioP1;P1;durP2;ratioP2;P2;SDS_P1;SDS_P2;PMS_P1;PMS_P2;Temp;Humidity;BMP_temperature;BMP_pressure;BME280_temperature;BME280_humidity;BME280_pressure;Samples;Min_cycle;Max_cycle;Signal;HPM_P1;HPM_P2
2022/10/10 00:00:55;;;;;;;4.10;2.08;;;15.40;60.50;;;;;;4846362;29;20108;-77
2022/10/10 00:03:21;;;;;;;3.22;2.20;;;15.40;60.40;;;;;;4845324;29;20058;-76
2022/10/10 00:05:46;;;;;;;4.50;2.03;;;15.40;60.40;;;;;;4845989;29;20046;-76
2022/10/10 00:08:12;;;;;;;3.70;2.13;;;15.40;60.40;;;;;;4846059;29;20057;-77
2022/10/10 00:10:38;;;;;;;6.47;2.85;;;15.40;60.50;;;;;;4845472;29;20065;-75
2022/10/10 00:13:05;;;;;;;5.15;2.78;;;15.30;60.50;;;;;;4845720;29;20050;-76
2022/10/10 00:15:31;;;;;;;4.82;2.78;;;15.30;60.50;;;;;;4845758;29;20090;-75
2022/10/10 00:17:57;;;;;;;4.50;2.60;;;15.30;60.60;;;;;;4845753;29;20534;-77
2022/10/10 00:20:23;;;;;;;5.40;2.60;;;15.30;60.70;;;;;;4845509;29;20050;-77
2022/10/10 00:22:49;;;;;;;3.35;2.42;;;15.30;60.70;;;;;;4845064;29;20054;-77
2022/10/10 00:25:14;;;;;;;6.55;2.80;;;15.30;60.70;;;;;;4845407;29;20050;-76
2022/10/10 00:27:40;;;;;;;3.15;2.40;;;15.30;60.70;;;;;;4829312;29;20061;-75
2022/10/10 00:30:08;;;;;;;3.63;2.38;;;15.30;60.80;;;;;;4844794;29;20042;-76
2022/10/10 00:32:35;;;;;;;6.97;2.97;;;15.30;60.80;;;;;;4845694;29;20127;-77
2022/10/10 00:35:01;;;;;;;5.10;2.55;;;15.30;60.90;;;;;;4845435;29;20538;-75
2022/10/10 00:37:27;;;;;;;3.45;2.55;;;15.30;60.90;;;;;;4845977;29;20097;-75
2022/10/10 00:39:52;;;;;;;5.30;3.00;;;15.30;60.90;;;;;;4844954;29;20112;-76
2022/10/10 00:42:18;;;;;;;5.18;2.70;;;15.30;60.90;;;;;;4845191;29;20056;-76
2022/10/10 00:45:05;;;;;;;4.93;2.50;;;15.30;60.80;;;;;;4845158;29;20056;-76
2022/10/10 00:47:31;;;;;;;4.57;2.40;;;15.20;60.80;;;;;;4845137;29;20542;-76
2022/10/10 00:49:56;;;;;;;4.50;2.60;;;15.20;60.80;;;;;;4845256;29;20042;-76
2022/10/10 00:52:22;;;;;;;4.95;2.90;;;15.20;60.80;;;;;;4845036;29;20118;-75
2022/10/10 00:54:48;;;;;;;5.53;2.80;;;15.20;60.80;;;;;;4845062;29;20132;-76
2022/10/10 00:57:14;;;;;;;3.22;2.63;;;15.20;60.90;;;;;;4844400;29;20057;-77
2022/10/10 00:59:42;;;;;;;6.03;3.05;;;15.20;61.00;;;;;;4844835;29;20057;-76
2022/10/10 01:02:08;;;;;;;4.55;2.72;;;15.20;60.90;;;;;;4844531;29;20069;-75
2022/10/10 01:04:42;;;;;;;6.18;3.03;;;15.20;61.00;;;;;;4843639;29;20054;-75
2022/10/10 01:07:15;;;;;;;5.25;2.50;;;15.20;61.00;;;;;;4844747;29;20050;-76
2022/10/10 01:09:43;;;;;;;4.90;3.10;;;15.10;61.00;;;;;;4844251;29;20053;-77
2022/10/10 01:12:36;;;;;;;4.70;2.63;;;15.10;61.00;;;;;;4845403;29;20060;-76
2022/10/10 01:15:17;;;;;;;3.05;2.72;;;15.10;61.00;;;;;;4845026;29;20125;-76
2022/10/10 01:17:42;;;;;;;3.85;2.97;;;15.10;61.00;;;;;;4844595;29;20050;-76
2022/10/10 01:20:26;;;;;;;3.58;2.90;;;15.10;61.00;;;;;;4844845;29;20042;-76
2022/10/10 01:22:57;;;;;;;5.95;3.28;;;15.10;61.00;;;;;;4844857;29;20064;-76
2022/10/10 01:25:29;;;;;;;4.72;3.38;;;15.10;61.00;;;;;;4844184;29;20510;-77
2022/10/10 01:28:12;;;;;;;4.07;3.05;;;15.10;61.10;;;;;;4835031;29;20081;-76
2022/10/10 01:30:40;;;;;;;4.43;2.90;;;15.10;61.10;;;;;;4826363;29;20426;-76
2022/10/10 01:33:12;;;;;;;5.45;3.38;;;15.10;61.10;;;;;;4842270;29;20060;-75
2022/10/10 01:35:54;;;;;;;4.70;3.25;;;15.10;61.10;;;;;;4844606;29;20053;-76
2022/10/10 01:38:38;;;;;;;4.38;2.90;;;15.00;61.00;;;;;;4844416;29;20054;-75
2022/10/10 01:41:15;;;;;;;4.78;2.83;;;15.00;60.90;;;;;;4828458;29;20064;-75
2022/10/10 01:43:41;;;;;;;4.72;3.15;;;15.00;60.90;;;;;;4844440;29;20064;-74
2022/10/10 01:46:13;;;;;;;5.05;3.00;;;15.00;61.00;;;;;;4844323;29;20469;-75
2022/10/10 01:48:39;;;;;;;5.63;3.35;;;15.00;60.90;;;;;;4844225;29;20114;-76
2022/10/10 01:51:24;;;;;;;4.68;3.20;;;15.00;61.00;;;;;;4828849;29;20133;-74
2022/10/10 01:54:11;;;;;;;5.30;3.60;;;15.00;61.10;;;;;;4844465;29;20060;-75
2022/10/10 01:56:53;;;;;;;6.35;3.50;;;15.00;61.00;;;;;;4844519;29;20053;-76
2022/10/10 01:59:37;;;;;;;8.10;3.60;;;15.00;61.00;;;;;;4826291;29;20070;-75
2022/10/10 02:02:19;;;;;;;5.20;3.50;;;15.00;61.00;;;;;;4834677;29;20137;-75
2022/10/10 02:05:06;;;;;;;5.10;3.25;;;14.90;61.00;;;;;;4844099;29;20442;-76
2022/10/10 02:07:38;;;;;;;6.22;3.65;;;14.90;61.10;;;;;;4844132;29;20049;-75
2022/10/10 02:10:06;;;;;;;5.80;3.42;;;14.90;61.00;;;;;;4844200;29;20053;-76
2022/10/10 02:12:33;;;;;;;4.07;3.13;;;14.90;61.10;;;;;;4844403;29;20481;-76
2022/10/10 02:15:13;;;;;;;6.00;3.70;;;14.90;61.20;;;;;;4844219;29;20473;-74
2022/10/10 02:17:40;;;;;;;4.60;3.08;;;14.90;61.20;;;;;;4846947;29;20081;-74
2022/10/10 02:20:09;;;;;;;5.70;4.03;;;14.90;61.20;;;;;;4847602;29;20061;-74
2022/10/10 02:22:37;;;;;;;5.28;3.60;;;14.90;61.10;;;;;;4847670;29;20128;-73
2022/10/10 02:25:03;;;;;;;7.65;3.58;;;14.90;61.10;;;;;;4848192;29;20473;-74
2022/10/10 02:27:42;;;;;;;6.00;2.95;;;14.90;61.10;;;;;;4847763;29;20146;-73
2022/10/10 02:30:09;;;;;;;7.43;3.60;;;14.90;61.10;;;;;;4847320;29;20046;-73
2022/10/10 02:32:44;;;;;;;4.35;3.10;;;14.80;61.10;;;;;;4847348;29;20058;-73
2022/10/10 02:35:18;;;;;;;4.15;3.30;;;14.80;61.10;;;;;;4847446;29;20062;-73
2022/10/10 02:37:45;;;;;;;5.88;3.40;;;14.90;61.20;;;;;;4847301;29;20137;-72
2022/10/10 02:40:15;;;;;;;4.90;2.75;;;14.90;61.30;;;;;;4847481;29;20061;-73
2022/10/10 02:42:41;;;;;;;6.68;3.65;;;14.80;61.30;;;;;;4847513;29;20378;-73
2022/10/10 02:45:07;;;;;;;5.63;3.58;;;14.80;61.30;;;;;;4847607;29;20128;-73
2022/10/10 02:47:33;;;;;;;4.72;3.10;;;14.80;61.30;;;;;;4830890;29;20054;-73
2022/10/10 02:49:59;;;;;;;4.15;3.28;;;14.80;61.30;;;;;;4847356;29;20049;-73
2022/10/10 02:52:24;;;;;;;5.00;3.28;;;14.80;61.40;;;;;;4847413;29;20095;-72
2022/10/10 02:54:50;;;;;;;4.35;3.22;;;14.80;61.40;;;;;;4847155;29;20377;-73
2022/10/10 02:57:16;;;;;;;4.95;3.30;;;14.80;61.50;;;;;;4847316;29;20054;-73
2022/10/10 02:59:41;;;;;;;4.18;3.25;;;14.80;61.50;;;;;;4847230;29;20427;-74
2022/10/10 03:02:07;;;;;;;3.50;2.70;;;14.80;61.50;;;;;;4846920;29;20103;-74
2022/10/10 03:04:34;;;;;;;6.60;3.50;;;14.80;61.40;;;;;;4847077;29;20057;-74
2022/10/10 03:07:01;;;;;;;4.13;3.03;;;14.80;61.40;;;;;;4846771;29;20100;-73
2022/10/10 03:09:27;;;;;;;4.03;2.95;;;14.80;61.40;;;;;;4847610;29;20069;-72
2022/10/10 03:11:53;;;;;;;8.00;3.70;;;14.80;61.30;;;;;;4846684;29;20058;-72
2022/10/10 03:14:18;;;;;;;6.90;3.45;;;14.70;61.30;;;;;;4846759;29;20053;-72
2022/10/10 03:16:44;;;;;;;6.00;3.20;;;14.70;61.30;;;;;;4846699;29;20132;-73
2022/10/10 03:19:10;;;;;;;4.03;3.40;;;14.70;61.30;;;;;;4846714;29;20054;-73
2022/10/10 03:21:36;;;;;;;5.55;3.38;;;14.70;61.30;;;;;;4846738;29;20049;-73
2022/10/10 03:24:04;;;;;;;5.72;3.55;;;14.70;61.30;;;;;;4846832;29;20058;-73
2022/10/10 03:26:30;;;;;;;3.88;3.40;;;14.70;61.30;;;;;;4845769;29;20060;-73
2022/10/10 03:28:55;;;;;;;3.35;2.72;;;14.70;61.40;;;;;;4845983;29;20050;-72
2022/10/10 03:31:21;;;;;;;4.93;3.25;;;14.70;61.50;;;;;;4846247;29;20041;-73
2022/10/10 03:33:47;;;;;;;5.78;3.40;;;14.70;61.50;;;;;;4846410;29;20053;-73
2022/10/10 03:36:12;;;;;;;4.28;3.22;;;14.60;61.60;;;;;;4846475;29;20042;-73
2022/10/10 03:38:39;;;;;;;5.32;3.80;;;14.60;61.60;;;;;;4846482;29;20080;-73
2022/10/10 03:41:05;;;;;;;5.43;3.60;;;14.70;61.70;;;;;;4846075;29;20053;-73
2022/10/10 03:43:31;;;;;;;5.10;3.60;;;14.70;61.70;;;;;;4846527;29;20053;-74
2022/10/10 03:45:57;;;;;;;5.40;3.22;;;14.60;61.60;;;;;;4846199;29;20061;-73
2022/10/10 03:48:22;;;;;;;5.15;3.70;;;14.60;61.70;;;;;;4846256;29;20057;-73
2022/10/10 03:50:48;;;;;;;4.60;3.20;;;14.60;61.70;;;;;;4846275;29;20076;-74
2022/10/10 03:53:14;;;;;;;4.55;3.40;;;14.60;61.80;;;;;;4846361;29;20050;-72
2022/10/10 03:55:41;;;;;;;5.40;3.88;;;14.60;61.80;;;;;;4846404;29;20454;-73
2022/10/10 03:58:09;;;;;;;5.97;3.70;;;14.60;62.50;;;;;;4829608;29;20058;-73
2022/10/10 04:00:36;;;;;;;5.93;3.78;;;14.60;61.90;;;;;;4845747;29;20065;-74
2022/10/10 04:03:05;;;;;;;4.75;3.42;;;14.60;61.80;;;;;;4845405;29;20061;-74
2022/10/10 04:05:37;;;;;;;5.47;3.28;;;14.60;61.80;;;;;;4846145;29;20370;-72
2022/10/10 04:08:04;;;;;;;4.85;3.58;;;14.50;61.80;;;;;;4845897;29;20565;-72
2022/10/10 04:10:30;;;;;;;5.22;3.80;;;14.50;61.70;;;;;;4845627;29;20046;-72
2022/10/10 04:12:57;;;;;;;5.65;3.97;;;14.50;61.60;;;;;;4845747;29;20140;-73
2022/10/10 04:15:24;;;;;;;7.68;3.53;;;14.50;61.80;;;;;;4846104;29;20362;-74
2022/10/10 04:17:50;;;;;;;5.47;3.60;;;14.50;61.80;;;;;;4845730;29;20054;-73
2022/10/10 04:20:16;;;;;;;5.70;3.30;;;14.50;62.00;;;;;;4845432;29;20057;-73
2022/10/10 04:22:43;;;;;;;4.72;3.42;;;14.50;62.00;;;;;;4845595;29;20075;-72
2022/10/10 04:25:10;;;;;;;5.22;3.80;;;14.50;61.90;;;;;;4845868;29;20083;-73
2022/10/10 04:27:36;;;;;;;6.50;3.30;;;14.50;62.00;;;;;;4845605;29;20046;-72
2022/10/10 04:30:03;;;;;;;4.57;3.58;;;14.40;62.00;;;;;;4845499;29;20119;-73
2022/10/10 04:32:29;;;;;;;7.90;3.63;;;14.50;62.00;;;;;;4829177;29;20085;-73
2022/10/10 04:34:54;;;;;;;5.85;3.97;;;14.50;62.10;;;;;;4845310;29;20092;-73
2022/10/10 04:37:20;;;;;;;16.17;3.92;;;14.40;62.10;;;;;;4845777;29;20534;-74
2022/10/10 04:39:46;;;;;;;7.53;3.63;;;14.40;62.10;;;;;;4845487;29;20065;-75
2022/10/10 04:42:12;;;;;;;7.50;3.17;;;14.40;62.10;;;;;;4844950;29;20396;-76
2022/10/10 04:44:37;;;;;;;7.28;3.17;;;14.40;62.10;;;;;;4844714;29;20058;-74
2022/10/10 04:47:04;;;;;;;8.32;3.63;;;14.40;62.20;;;;;;4845385;29;20061;-71
2022/10/10 04:49:29;;;;;;;5.32;2.97;;;14.40;62.30;;;;;;4845944;29;20049;-71
2022/10/10 04:51:55;;;;;;;7.32;3.55;;;14.40;62.30;;;;;;4845731;29;20455;-74
2022/10/10 04:54:21;;;;;;;10.88;3.67;;;14.40;62.50;;;;;;4829290;29;20091;-76
2022/10/10 04:56:46;;;;;;;10.90;3.45;;;14.40;62.90;;;;;;4829159;29;20131;-74
2022/10/10 04:59:12;;;;;;;12.55;4.18;;;14.40;63.30;;;;;;4827967;29;20473;-71
2022/10/10 05:01:38;;;;;;;11.30;3.40;;;14.50;63.50;;;;;;4844579;29;20049;-71
2022/10/10 05:04:04;;;;;;;7.05;3.08;;;14.50;63.90;;;;;;4834245;29;20055;-71
2022/10/10 05:06:30;;;;;;;9.60;2.58;;;14.70;64.40;;;;;;4808781;29;20550;-74
2022/10/10 05:08:56;;;;;;;13.45;3.10;;;14.80;64.50;;;;;;4809944;29;20186;-72
2022/10/10 05:11:22;;;;;;;11.82;2.50;;;15.00;64.60;;;;;;4826445;29;20133;-71
2022/10/10 05:13:49;;;;;;;10.85;2.40;;;15.20;64.70;;;;;;4826295;29;20433;-72
2022/10/10 05:16:15;;;;;;;19.35;2.53;;;15.40;64.90;;;;;;4827189;29;20191;-72
2022/10/10 05:18:41;;;;;;;10.77;2.40;;;15.50;65.00;;;;;;4826208;29;20101;-71
2022/10/10 05:21:07;;;;;;;7.55;2.58;;;15.60;65.00;;;;;;4826211;29;20049;-72
2022/10/10 05:23:34;;;;;;;8.27;2.35;;;15.70;65.10;;;;;;4826051;29;20061;-72
2022/10/10 05:26:00;;;;;;;10.68;2.47;;;15.70;65.10;;;;;;4839914;29;20042;-71
2022/10/10 05:28:25;;;;;;;12.45;2.42;;;15.80;65.30;;;;;;4842133;29;20065;-72
2022/10/10 05:30:51;;;;;;;7.15;2.00;;;15.80;65.30;;;;;;4837918;29;20129;-71
2022/10/10 05:33:17;;;;;;;12.95;2.40;;;15.80;65.50;;;;;;4824436;29;20064;-73
2022/10/10 05:35:43;;;;;;;14.07;1.90;;;15.90;65.50;;;;;;4825473;29;20050;-73
2022/10/10 05:38:09;;;;;;;8.88;2.45;;;15.90;65.30;;;;;;4825811;29;20541;-72
2022/10/10 05:40:38;;;;;;;8.50;2.25;;;15.90;65.40;;;;;;4825504;29;20047;-72
2022/10/10 05:43:04;;;;;;;8.98;2.33;;;16.00;65.70;;;;;;4826015;29;20046;-71
2022/10/10 05:45:30;;;;;;;12.52;3.20;;;16.00;66.00;;;;;;4826195;29;20519;-71
2022/10/10 05:47:55;;;;;;;10.35;2.38;;;16.00;66.00;;;;;;4826346;29;20128;-71
2022/10/10 05:50:30;;;;;;;13.23;2.83;;;16.00;66.10;;;;;;4828932;29;20062;-72
2022/10/10 05:52:56;;;;;;;14.98;3.22;;;15.90;63.40;;;;;;4832603;29;20347;-70
2022/10/10 05:55:22;;;;;;;11.15;4.30;;;15.60;64.80;;;;;;4831838;29;20054;-72
2022/10/10 05:57:47;;;;;;;8.40;4.15;;;15.80;63.00;;;;;;4832048;29;20089;-73
2022/10/10 06:00:13;;;;;;;9.68;3.40;;;15.60;62.60;;;;;;4832949;29;20054;-73
2022/10/10 06:02:39;;;;;;;7.40;3.50;;;15.30;63.20;;;;;;4838879;29;20054;-72
2022/10/10 06:05:05;;;;;;;8.57;3.42;;;15.20;63.70;;;;;;4832469;29;20129;-74
2022/10/10 06:07:31;;;;;;;8.45;3.53;;;14.90;63.90;;;;;;4831929;29;20065;-72
2022/10/10 06:09:57;;;;;;;8.77;3.15;;;14.80;64.60;;;;;;4832102;29;20054;-73
2022/10/10 06:12:22;;;;;;;10.10;3.30;;;14.70;64.60;;;;;;4832628;29;20050;-74
2022/10/10 06:14:48;;;;;;;9.77;3.58;;;14.50;65.50;;;;;;4831796;29;20173;-73
2022/10/10 06:17:14;;;;;;;14.10;3.28;;;14.40;65.10;;;;;;4832497;29;20046;-73
2022/10/10 06:19:39;;;;;;;7.38;3.20;;;14.40;66.50;;;;;;4831811;29;20093;-73
2022/10/10 06:22:05;;;;;;;7.05;2.95;;;14.40;66.50;;;;;;4831530;29;20130;-74
2022/10/10 06:24:31;;;;;;;11.52;4.05;;;14.50;66.40;;;;;;4831819;29;20085;-77
2022/10/10 06:26:56;;;;;;;5.15;3.67;;;14.50;67.50;;;;;;4830557;29;20187;-76
2022/10/10 06:29:22;;;;;;;8.45;4.00;;;14.70;66.30;;;;;;4832564;29;20058;-77
2022/10/10 06:31:48;;;;;;;6.05;3.95;;;14.80;65.30;;;;;;4835194;29;20116;-77
2022/10/10 06:34:14;;;;;;;5.20;3.30;;;14.80;65.00;;;;;;4849555;29;20050;-76
2022/10/10 06:36:39;;;;;;;9.90;4.00;;;14.90;64.30;;;;;;4850126;29;20123;-74
2022/10/10 06:39:05;;;;;;;8.70;4.28;;;15.00;64.20;;;;;;4849692;29;20508;-75
2022/10/10 06:41:31;;;;;;;7.95;3.67;;;15.00;64.20;;;;;;4849995;29;20134;-75
2022/10/10 06:43:56;;;;;;;8.05;3.38;;;15.00;64.30;;;;;;4850085;29;20335;-74
2022/10/10 06:46:22;;;;;;;6.63;3.15;;;15.10;64.40;;;;;;4850042;29;20112;-76
2022/10/10 06:48:48;;;;;;;5.95;2.90;;;15.20;64.50;;;;;;4850019;29;20045;-74
2022/10/10 06:51:16;;;;;;;10.35;3.25;;;15.20;64.40;;;;;;4849667;29;20525;-74
2022/10/10 06:53:42;;;;;;;4.63;2.30;;;15.20;64.50;;;;;;4849807;29;20050;-76
2022/10/10 06:56:16;;;;;;;8.73;2.95;;;15.30;64.70;;;;;;4848199;29;20042;-72
2022/10/10 06:58:43;;;;;;;10.85;3.22;;;15.30;64.70;;;;;;4839632;29;20054;-74
2022/10/10 07:01:09;;;;;;;17.00;3.50;;;15.30;65.00;;;;;;4848836;29;20050;-74
2022/10/10 07:03:35;;;;;;;9.60;3.63;;;15.30;64.60;;;;;;4847000;29;20062;-74
2022/10/10 07:06:02;;;;;;;8.48;3.42;;;15.30;64.40;;;;;;4812893;29;20145;-74
2022/10/10 07:08:28;;;;;;;9.55;2.95;;;15.20;64.40;;;;;;4828992;29;20061;-74
2022/10/10 07:10:55;;;;;;;5.97;2.92;;;15.10;64.60;;;;;;4828585;29;20319;-74
2022/10/10 07:13:21;;;;;;;8.05;2.70;;;15.10;64.90;;;;;;4829199;29;20489;-74
2022/10/10 07:15:47;;;;;;;7.93;3.05;;;15.10;65.40;;;;;;4827949;29;20124;-77
2022/10/10 07:18:15;;;;;;;7.90;2.75;;;15.10;65.60;;;;;;4827870;29;20390;-77
2022/10/10 07:20:41;;;;;;;8.45;3.15;;;15.20;65.80;;;;;;4828297;29;20046;-77
2022/10/10 07:23:07;;;;;;;8.77;2.67;;;15.20;66.00;;;;;;4828005;29;20073;-78
2022/10/10 07:25:33;;;;;;;7.32;2.83;;;15.30;66.10;;;;;;4827189;29;20470;-77
2022/10/10 07:27:59;;;;;;;11.50;3.20;;;15.30;66.20;;;;;;4825891;29;20046;-74
2022/10/10 08:03:01;;;;;;;8.95;2.97;;;15.30;66.90;;;;;;4785435;30;20066;-76
2022/10/10 08:05:28;;;;;;;15.35;3.75;;;15.30;67.10;;;;;;4775587;30;20067;-74
2022/10/10 08:07:54;;;;;;;12.77;3.55;;;15.40;67.20;;;;;;4790152;30;20497;-76
2022/10/10 08:10:20;;;;;;;12.50;3.60;;;15.40;67.70;;;;;;4784422;30;20087;-75
2022/10/10 08:12:46;;;;;;;9.75;2.75;;;15.40;67.30;;;;;;4756967;30;20087;-75
2022/10/10 08:15:12;;;;;;;12.68;3.22;;;15.40;67.00;;;;;;4773538;30;20130;-77
2022/10/10 08:17:37;;;;;;;14.13;3.85;;;15.40;67.10;;;;;;4773345;30;20067;-77
2022/10/10 08:20:04;;;;;;;12.82;3.08;;;15.50;67.30;;;;;;4773399;30;20367;-78
2022/10/10 08:22:29;;;;;;;10.00;3.20;;;15.50;67.30;;;;;;4776516;30;20047;-77
2022/10/10 08:24:55;;;;;;;6.60;3.38;;;15.50;67.40;;;;;;4790721;29;20051;-76
2022/10/10 08:27:22;;;;;;;11.55;3.80;;;15.50;67.40;;;;;;4790708;30;20054;-76
2022/10/10 08:29:48;;;;;;;14.85;3.45;;;15.50;67.40;;;;;;4790958;30;20065;-76
2022/10/10 08:32:14;;;;;;;7.95;2.80;;;15.50;68.00;;;;;;4790722;30;20063;-75
2022/10/10 08:34:40;;;;;;;9.75;3.38;;;15.50;67.60;;;;;;4790914;30;20070;-75
2022/10/10 08:37:05;;;;;;;10.95;3.78;;;15.50;67.60;;;;;;4789628;30;20051;-76
2022/10/10 08:39:31;;;;;;;8.60;3.60;;;15.50;67.80;;;;;;4789823;30;20111;-76
2022/10/10 08:42:01;;;;;;;12.50;4.07;;;15.50;67.90;;;;;;4790669;30;20063;-75
2022/10/10 08:44:48;;;;;;;14.30;4.10;;;15.60;67.80;;;;;;4791065;30;20055;-75
2022/10/10 08:47:36;;;;;;;12.98;3.78;;;15.50;67.60;;;;;;4790574;30;20526;-75
2022/10/10 08:50:10;;;;;;;10.02;4.03;;;15.60;67.70;;;;;;4791045;30;20061;-74
2022/10/10 08:53:12;;;;;;;15.32;3.88;;;15.50;67.80;;;;;;4787485;30;20089;-74
2022/10/10 08:55:42;;;;;;;11.75;4.47;;;15.60;68.10;;;;;;4770484;30;20064;-74
2022/10/10 08:58:22;;;;;;;13.20;5.88;;;15.60;68.40;;;;;;4773277;30;20055;-74
2022/10/10 09:01:18;;;;;;;14.05;5.20;;;15.60;69.60;;;;;;4776262;30;20067;-74
2022/10/10 09:03:55;;;;;;;11.50;5.30;;;15.60;68.90;;;;;;4788935;30;20063;-73
2022/10/10 09:06:42;;;;;;;9.90;5.43;;;15.60;69.00;;;;;;4800493;29;20054;-72
2022/10/10 09:09:37;;;;;;;9.73;4.53;;;15.60;69.10;;;;;;4808210;29;20050;-73
2022/10/10 09:12:39;;;;;;;6.75;4.13;;;15.60;69.10;;;;;;4808132;29;20054;-74
2022/10/10 09:15:18;;;;;;;12.50;4.93;;;15.60;68.80;;;;;;4792753;29;20089;-73
2022/10/10 09:18:01;;;;;;;11.48;4.80;;;15.60;69.10;;;;;;4808481;29;20081;-72
2022/10/10 09:20:57;;;;;;;6.80;4.13;;;15.60;69.10;;;;;;4808520;29;20328;-73
2022/10/10 09:23:55;;;;;;;8.00;4.13;;;15.60;68.90;;;;;;4808979;29;20054;-73
2022/10/10 09:26:38;;;;;;;6.32;3.38;;;15.60;68.90;;;;;;4807328;29;20050;-72
2022/10/10 09:29:26;;;;;;;8.20;3.40;;;15.60;69.10;;;;;;4807710;29;20055;-73
2022/10/10 09:32:10;;;;;;;10.13;3.28;;;15.60;69.10;;;;;;4808373;29;20146;-74
2022/10/10 09:34:53;;;;;;;9.73;4.75;;;15.60;69.00;;;;;;4807561;29;20050;-73
2022/10/10 09:37:47;;;;;;;11.18;3.63;;;15.60;69.10;;;;;;4792536;29;20130;-72
2022/10/10 09:40:24;;;;;;;6.78;3.28;;;15.60;69.00;;;;;;4805751;29;20063;-73
2022/10/10 09:42:51;;;;;;;10.18;3.50;;;15.60;69.00;;;;;;4808449;29;20053;-73
2022/10/10 09:45:35;;;;;;;8.55;2.88;;;15.60;69.20;;;;;;4807706;29;20058;-75
2022/10/10 09:48:00;;;;;;;7.50;2.85;;;15.50;69.20;;;;;;4808025;29;20130;-77
2022/10/10 09:50:27;;;;;;;13.60;4.20;;;15.60;69.40;;;;;;4807920;29;20519;-78
2022/10/10 09:52:55;;;;;;;10.77;4.22;;;15.60;69.60;;;;;;4774325;29;20065;-74
2022/10/10 09:55:25;;;;;;;13.70;4.38;;;15.60;70.30;;;;;;4820852;29;20050;-72
2022/10/10 09:57:55;;;;;;;11.57;4.90;;;15.60;70.00;;;;;;4826051;29;20047;-71
2022/10/10 10:00:26;;;;;;;8.45;4.50;;;15.60;70.30;;;;;;4825680;29;20058;-76
2022/10/10 10:03:14;;;;;;;10.50;5.10;;;15.60;70.50;;;;;;4796223;29;20073;-74
2022/10/10 10:05:43;;;;;;;9.80;5.30;;;15.70;70.80;;;;;;4789909;30;20070;-75
2022/10/10 10:08:22;;;;;;;10.57;4.50;;;15.70;71.00;;;;;;4789645;30;20047;-74
2022/10/10 10:10:47;;;;;;;7.95;4.28;;;15.70;70.40;;;;;;4803387;29;20082;-74
2022/10/10 10:13:20;;;;;;;13.00;4.75;;;15.70;70.70;;;;;;4807334;29;20094;-74
2022/10/10 10:16:11;;;;;;;10.45;3.75;;;15.70;70.70;;;;;;4807859;29;20046;-76
2022/10/10 10:18:40;;;;;;;6.85;4.38;;;15.70;70.20;;;;;;4807050;29;20058;-74
2022/10/10 10:21:06;;;;;;;8.10;5.18;;;15.70;70.60;;;;;;4791565;29;20059;-73
2022/10/10 10:23:49;;;;;;;10.13;4.43;;;15.70;70.90;;;;;;4807136;29;20047;-74
2022/10/10 10:26:21;;;;;;;12.18;4.70;;;15.70;70.70;;;;;;4807390;29;20142;-75
2022/10/10 10:28:49;;;;;;;10.68;4.20;;;15.70;70.50;;;;;;4807191;29;20485;-74
2022/10/10 10:31:31;;;;;;;9.98;3.67;;;15.70;70.70;;;;;;4807260;29;20359;-74
2022/10/10 10:34:26;;;;;;;7.65;3.35;;;15.70;70.70;;;;;;4807319;29;20459;-74
2022/10/10 10:37:22;;;;;;;7.38;3.25;;;15.70;70.30;;;;;;4806383;29;20059;-74
2022/10/10 10:39:54;;;;;;;8.23;3.63;;;15.70;70.90;;;;;;4795117;29;20061;-75
2022/10/10 10:42:47;;;;;;;7.35;3.63;;;15.70;70.80;;;;;;4810564;29;20451;-75
2022/10/10 10:45:39;;;;;;;8.60;3.50;;;15.70;70.60;;;;;;4810865;29;20063;-75
2022/10/10 10:48:23;;;;;;;5.25;2.60;;;15.70;70.60;;;;;;4810311;29;20468;-75
2022/10/10 10:51:16;;;;;;;7.80;3.20;;;15.70;70.80;;;;;;4810293;29;20059;-76
2022/10/10 10:54:09;;;;;;;8.02;3.45;;;15.70;71.00;;;;;;4810391;29;20055;-76
2022/10/10 10:56:39;;;;;;;5.72;2.85;;;15.70;71.50;;;;;;4810174;29;20416;-75
2022/10/10 10:59:05;;;;;;;8.27;3.20;;;15.70;71.40;;;;;;4809989;29;20120;-77
2022/10/10 11:01:42;;;;;;;9.45;3.17;;;15.70;71.20;;;;;;4807626;29;20062;-75
2022/10/10 11:04:41;;;;;;;9.23;3.63;;;15.80;71.20;;;;;;4792413;30;20055;-76
2022/10/10 11:07:16;;;;;;;7.60;3.28;;;15.80;71.10;;;;;;4802971;29;20059;-74
2022/10/10 11:09:48;;;;;;;12.40;2.83;;;15.80;71.20;;;;;;4794733;29;20047;-76
2022/10/10 11:12:26;;;;;;;8.73;3.67;;;15.80;71.20;;;;;;4810210;29;20486;-75
2022/10/10 11:14:55;;;;;;;8.55;3.15;;;15.90;71.20;;;;;;4810291;29;20086;-76
2022/10/10 11:18:02;;;;;;;11.00;3.80;;;15.80;71.70;;;;;;4810288;29;20379;-76
2022/10/10 11:20:28;;;;;;;13.07;4.70;;;15.90;71.10;;;;;;4736834;30;20049;-75
2022/10/10 11:23:06;;;;;;;12.15;4.35;;;15.90;71.60;;;;;;4736925;30;20106;-76
2022/10/10 11:25:40;;;;;;;11.23;4.78;;;15.90;71.60;;;;;;4778822;29;20168;-77
2022/10/10 11:28:13;;;;;;;16.58;5.30;;;15.90;72.00;;;;;;4809448;29;20066;-77
2022/10/10 11:30:45;;;;;;;11.48;4.88;;;15.90;72.40;;;;;;4810205;29;20055;-76
2022/10/10 11:33:19;;;;;;;14.85;4.45;;;15.90;71.80;;;;;;4799520;29;20463;-76
2022/10/10 11:35:57;;;;;;;10.20;3.42;;;15.80;71.70;;;;;;4792399;30;20051;-75
2022/10/10 11:38:36;;;;;;;6.13;3.00;;;15.80;71.50;;;;;;4791707;30;20094;-76
2022/10/10 11:41:23;;;;;;;11.23;4.28;;;15.80;71.10;;;;;;4791991;30;20163;-77
2022/10/10 12:18:58;;;;;;;13.52;4.50;;;15.80;71.90;;;;;;5119567;24;20062;-76
2022/10/10 12:21:26;;;;;;;12.07;3.65;;;15.80;72.30;;;;;;4845143;29;20058;-75
2022/10/10 12:24:11;;;;;;;11.68;3.83;;;15.80;72.30;;;;;;4845699;29;20097;-75
2022/10/10 12:26:51;;;;;;;13.13;3.35;;;15.80;72.20;;;;;;4845281;29;20381;-77
2022/10/10 12:30:08;;;;;;;11.80;3.15;;;15.80;72.60;;;;;;4845239;29;20057;-75
2022/10/10 12:32:40;;;;;;;13.27;3.22;;;15.90;72.10;;;;;;4829291;29;20465;-75
2022/10/10 12:35:27;;;;;;;14.82;4.10;;;15.90;72.40;;;;;;4829448;29;20069;-76
2022/10/10 12:38:07;;;;;;;10.25;3.40;;;15.90;72.00;;;;;;4829993;29;20053;-75
2022/10/10 12:40:54;;;;;;;12.23;3.67;;;15.90;72.20;;;;;;4829083;29;20053;-78
2022/10/10 12:43:36;;;;;;;16.35;2.28;;;15.90;72.00;;;;;;4845091;29;20540;-77
2022/10/10 12:46:22;;;;;;;7.25;1.63;;;15.90;72.40;;;;;;4843578;29;20061;-75
2022/10/10 12:49:12;;;;;;;7.00;1.98;;;16.00;72.60;;;;;;4842922;29;20469;-76
2022/10/10 12:51:40;;;;;;;7.55;1.75;;;16.00;72.60;;;;;;4844836;29;20050;-76
2022/10/10 12:54:07;;;;;;;7.72;1.60;;;15.90;72.60;;;;;;4844971;29;20072;-78
2022/10/10 12:56:40;;;;;;;5.68;1.75;;;15.90;72.90;;;;;;4844653;29;20052;-75
2022/10/10 13:44:12;;;;;;;7.35;1.30;;;16.10;72.50;;;;;;5196751;24;20058;-75
2022/10/10 13:46:38;;;;;;;7.32;1.55;;;16.10;72.40;;;;;;4842347;29;20053;-76
2022/10/10 13:49:22;;;;;;;10.77;1.75;;;16.10;72.40;;;;;;4844121;29;20041;-76
2022/10/10 13:52:00;;;;;;;8.68;1.30;;;16.20;72.40;;;;;;4843668;29;20446;-76
2022/10/10 13:54:42;;;;;;;8.98;1.60;;;16.20;72.40;;;;;;4844453;29;20050;-76
2022/10/10 13:57:23;;;;;;;11.07;1.45;;;16.20;72.30;;;;;;4844134;29;20462;-76
2022/10/10 14:00:02;;;;;;;6.22;1.60;;;16.20;72.20;;;;;;4843831;29;20102;-76
2022/10/10 14:02:34;;;;;;;9.88;1.75;;;16.20;72.40;;;;;;4843181;29;20114;-75
2022/10/10 14:05:06;;;;;;;9.93;1.95;;;16.30;72.40;;;;;;4843573;29;20065;-76
2022/10/10 14:07:33;;;;;;;10.02;2.38;;;16.20;72.20;;;;;;4843940;29;20058;-77
2022/10/10 14:10:00;;;;;;;13.90;2.80;;;16.20;71.80;;;;;;4843951;29;20484;-77
2022/10/10 14:12:34;;;;;;;13.48;2.22;;;16.20;71.30;;;;;;4830682;29;20415;-76
2022/10/10 14:15:01;;;;;;;11.55;2.53;;;16.10;71.30;;;;;;4847944;29;20529;-76
2022/10/10 14:17:28;;;;;;;10.25;2.90;;;16.10;71.00;;;;;;4847771;29;20480;-78
2022/10/10 14:19:54;;;;;;;9.25;2.17;;;16.00;71.00;;;;;;4846481;29;20046;-78
2022/10/10 14:22:21;;;;;;;12.07;2.25;;;16.00;71.30;;;;;;4846485;29;20101;-77
2022/10/10 14:24:48;;;;;;;12.70;2.33;;;16.00;71.50;;;;;;4831151;29;20054;-79
2022/10/10 14:27:23;;;;;;;10.02;1.70;;;16.00;71.70;;;;;;4831437;29;20161;-80
2022/10/10 14:29:51;;;;;;;8.10;1.67;;;16.10;71.70;;;;;;4830607;29;20050;-80
2022/10/10 14:32:17;;;;;;;11.68;2.33;;;16.10;71.70;;;;;;4831764;29;20450;-80
2022/10/10 14:34:43;;;;;;;10.07;2.17;;;16.10;71.70;;;;;;4828989;29;20092;-80
2022/10/10 14:37:21;;;;;;;13.10;2.47;;;16.10;71.70;;;;;;4829336;29;20063;-78
2022/10/10 14:39:48;;;;;;;13.45;2.22;;;16.10;71.70;;;;;;4813998;29;20058;-79
2022/10/10 14:42:16;;;;;;;9.18;1.63;;;16.10;71.80;;;;;;4829260;29;20050;-78
2022/10/10 14:44:43;;;;;;;9.48;2.20;;;16.10;71.80;;;;;;4845442;29;20481;-78
2022/10/10 14:47:18;;;;;;;5.13;1.67;;;16.10;71.90;;;;;;4831879;29;20069;-79
2022/10/10 14:49:45;;;;;;;6.80;1.80;;;16.10;71.80;;;;;;4831584;29;20514;-79
2022/10/10 14:52:11;;;;;;;7.35;1.35;;;16.10;71.70;;;;;;4831815;29;20045;-79
2022/10/10 14:54:37;;;;;;;12.57;2.08;;;16.10;71.70;;;;;;4846998;29;20133;-78
2022/10/10 14:57:03;;;;;;;8.40;1.40;;;16.20;71.80;;;;;;4847154;29;20060;-78